sensor_id;sensor_type;location;lat;lon;timestamp;temperature;humidity
23495;DHT22;26107;50.832;2.950;2024-02-21T00:12:03;10.20;99.90
23495;DHT22;26107;50.832;2.950;2024-02-21T00:27:05;10.00;99.90
23495;DHT22;26107;50.832;2.950;2024-02-21T00:42:06;9.80;99.90
23495;DHT22;26107;50.832;2.950;2024-02-21T00:57:11;9.90;99.90
23495;DHT22;26107;50.832;2.950;2024-02-21T01:12:12;10.00;99.90
23495;DHT22;26107;50.832;2.950;2024-02-21T01:27:12;9.90;99.90
23495;DHT22;26107;50.832;2.950;2024-02-21T01:42:13;9.90;99.90
23495;DHT22;26107;50.832;2.950;2024-02-21T01:57:14;9.60;99.90
23495;DHT22;26107;50.832;2.950;2024-02-21T02:12:15;9.70;99.90
23495;DHT22;26107;50.832;2.950;2024-02-21T02:27:15;9.90;99.90
23495;DHT22;26107;50.832;2.950;2024-02-21T02:42:16;9.80;99.90
23495;DHT22;26107;50.832;2.950;2024-02-21T02:57:17;10.10;99.90
23495;DHT22;26107;50.832;2.950;2024-02-21T03:12:18;10.20;99.90
23495;DHT22;26107;50.832;2.950;2024-02-21T03:27:24;10.20;99.90
23495;DHT22;26107;50.832;2.950;2024-02-21T03:42:27;10.00;99.90
23495;DHT22;26107;50.832;2.950;2024-02-21T03:57:31;9.70;99.90
23495;DHT22;26107;50.832;2.950;2024-02-21T04:12:37;10.00;99.90
23495;DHT22;26107;50.832;2.950;2024-02-21T04:27:41;10.00;99.90
23495;DHT22;26107;50.832;2.950;2024-02-21T04:42:42;10.00;99.90
23495;DHT22;26107;50.832;2.950;2024-02-21T04:57:42;9.60;99.90
23495;DHT22;26107;50.832;2.950;2024-02-21T05:12:43;9.70;99.90
23495;DHT22;26107;50.832;2.950;2024-02-21T05:27:46;9.90;99.90
23495;DHT22;26107;50.832;2.950;2024-02-21T05:42:47;9.90;99.90
23495;DHT22;26107;50.832;2.950;2024-02-21T05:57:47;9.70;99.90
23495;DHT22;26107;50.832;2.950;2024-02-21T06:12:48;9.80;99.90
23495;DHT22;26107;50.832;2.950;2024-02-21T06:27:49;9.70;99.90
23495;DHT22;26107;50.832;2.950;2024-02-21T06:42:52;9.60;99.90
23495;DHT22;26107;50.832;2.950;2024-02-21T06:57:53;9.50;99.90
23495;DHT22;26107;50.832;2.950;2024-02-21T07:12:54;9.60;99.90
23495;DHT22;26107;50.832;2.950;2024-02-21T07:27:54;9.30;99.90
23495;DHT22;26107;50.832;2.950;2024-02-21T07:42:55;9.60;99.90
23495;DHT22;26107;50.832;2.950;2024-02-21T07:57:55;9.50;99.90
23495;DHT22;26107;50.832;2.950;2024-02-21T08:12:58;9.70;99.90
23495;DHT22;26107;50.832;2.950;2024-02-21T08:27:59;9.50;99.90
23495;DHT22;26107;50.832;2.950;2024-02-21T08:43:02;9.50;99.90
23495;DHT22;26107;50.832;2.950;2024-02-21T08:58:04;9.60;99.90
23495;DHT22;26107;50.832;2.950;2024-02-21T09:13:05;9.70;99.90
23495;DHT22;26107;50.832;2.950;2024-02-21T09:28:05;9.70;99.90
23495;DHT22;26107;50.832;2.950;2024-02-21T09:43:10;9.70;99.90
23495;DHT22;26107;50.832;2.950;2024-02-21T09:58:10;9.60;99.90
23495;DHT22;26107;50.832;2.950;2024-02-21T10:13:25;9.90;99.90
23495;DHT22;26107;50.832;2.950;2024-02-21T10:28:26;9.80;99.90
23495;DHT22;26107;50.832;2.950;2024-02-21T10:43:26;9.80;99.90
23495;DHT22;26107;50.832;2.950;2024-02-21T10:58:33;9.80;99.90
23495;DHT22;26107;50.832;2.950;2024-02-21T11:13:37;9.70;99.90
23495;DHT22;26107;50.832;2.950;2024-02-21T11:28:40;9.70;99.90
23495;DHT22;26107;50.832;2.950;2024-02-21T11:43:42;9.90;99.90
23495;DHT22;26107;50.832;2.950;2024-02-21T11:58:42;10.10;99.90
23495;DHT22;26107;50.832;2.950;2024-02-21T12:13:43;10.30;99.90
23495;DHT22;26107;50.832;2.950;2024-02-21T12:28:44;10.20;99.90
23495;DHT22;26107;50.832;2.950;2024-02-21T12:43:44;10.20;99.90
23495;DHT22;26107;50.832;2.950;2024-02-21T12:58:45;10.10;99.90
23495;DHT22;26107;50.832;2.950;2024-02-21T13:13:45;10.10;99.90
23495;DHT22;26107;50.832;2.950;2024-02-21T13:28:46;10.20;99.90
23495;DHT22;26107;50.832;2.950;2024-02-21T13:43:48;10.30;99.90
23495;DHT22;26107;50.832;2.950;2024-02-21T13:58:53;10.30;99.90
23495;DHT22;26107;50.832;2.950;2024-02-21T14:13:56;10.10;99.90
23495;DHT22;26107;50.832;2.950;2024-02-21T14:28:58;9.90;99.90
23495;DHT22;26107;50.832;2.950;2024-02-21T14:43:58;9.90;99.90
23495;DHT22;26107;50.832;2.950;2024-02-21T14:59:03;10.00;99.90
23495;DHT22;26107;50.832;2.950;2024-02-21T15:14:04;10.00;99.90
23495;DHT22;26107;50.832;2.950;2024-02-21T15:29:07;10.10;99.90
23495;DHT22;26107;50.832;2.950;2024-02-21T15:44:10;10.10;99.90
23495;DHT22;26107;50.832;2.950;2024-02-21T15:59:14;10.00;99.90
23495;DHT22;26107;50.832;2.950;2024-02-21T16:14:17;10.20;99.90
23495;DHT22;26107;50.832;2.950;2024-02-21T16:29:21;10.20;99.90
23495;DHT22;26107;50.832;2.950;2024-02-21T16:44:23;10.20;99.90
23495;DHT22;26107;50.832;2.950;2024-02-21T16:59:24;10.20;99.90
23495;DHT22;26107;50.832;2.950;2024-02-21T17:14:25;10.20;99.90
23495;DHT22;26107;50.832;2.950;2024-02-21T17:29:26;10.20;99.90
23495;DHT22;26107;50.832;2.950;2024-02-21T17:44:29;10.20;99.90
23495;DHT22;26107;50.832;2.950;2024-02-21T17:59:29;10.30;99.90
23495;DHT22;26107;50.832;2.950;2024-02-21T18:14:33;10.40;99.90
23495;DHT22;26107;50.832;2.950;2024-02-21T18:29:33;10.30;99.90
23495;DHT22;26107;50.832;2.950;2024-02-21T18:44:35;10.30;99.90
23495;DHT22;26107;50.832;2.950;2024-02-21T18:59:40;10.20;99.90
23495;DHT22;26107;50.832;2.950;2024-02-21T19:14:41;10.40;99.90
23495;DHT22;26107;50.832;2.950;2024-02-21T19:30:00;10.50;99.90
23495;DHT22;26107;50.832;2.950;2024-02-21T19:45:04;10.50;99.90
23495;DHT22;26107;50.832;2.950;2024-02-21T20:00:05;10.50;99.90
23495;DHT22;26107;50.832;2.950;2024-02-21T20:15:07;10.50;99.90
23495;DHT22;26107;50.832;2.950;2024-02-21T20:30:08;10.60;99.90
23495;DHT22;26107;50.832;2.950;2024-02-21T20:45:09;10.50;99.90
23495;DHT22;26107;50.832;2.950;2024-02-21T21:00:12;10.70;99.90
23495;DHT22;26107;50.832;2.950;2024-02-21T21:15:13;10.80;99.90
23495;DHT22;26107;50.832;2.950;2024-02-21T21:30:16;10.90;99.90
23495;DHT22;26107;50.832;2.950;2024-02-21T21:45:16;11.00;99.90
23495;DHT22;26107;50.832;2.950;2024-02-21T22:00:20;11.30;99.90
23495;DHT22;26107;50.832;2.950;2024-02-21T22:15:23;11.20;99.90
23495;DHT22;26107;50.832;2.950;2024-02-21T22:30:24;11.20;99.90
23495;DHT22;26107;50.832;2.950;2024-02-21T22:45:26;11.30;99.90
23495;DHT22;26107;50.832;2.950;2024-02-21T23:00:26;11.20;99.90
23495;DHT22;26107;50.832;2.950;2024-02-21T23:15:32;11.30;99.90
23495;DHT22;26107;50.832;2.950;2024-02-21T23:30:32;11.30;99.90
23495;DHT22;26107;50.832;2.950;2024-02-21T23:45:35;11.20;99.90
